createdAt,value
2024-02-20T00:00:45.292Z,100.00
2024-02-20T00:01:47.209Z,100.00
2024-02-20T00:02:49.353Z,100.00
2024-02-20T00:03:51.189Z,100.00
2024-02-20T00:04:53.860Z,100.00
2024-02-20T00:05:55.709Z,100.00
2024-02-20T00:06:57.653Z,100.00
2024-02-20T00:08:04.212Z,100.00
2024-02-20T00:09:09.033Z,100.00
2024-02-20T00:10:15.156Z,100.00
2024-02-20T00:11:16.910Z,100.00
2024-02-20T00:12:19.286Z,100.00
2024-02-20T00:13:22.599Z,100.00
2024-02-20T00:14:24.652Z,100.00
2024-02-20T00:15:26.436Z,100.00
2024-02-20T00:16:28.633Z,100.00
2024-02-20T00:17:30.546Z,100.00
2024-02-20T00:18:32.401Z,100.00
2024-02-20T00:19:34.637Z,100.00
2024-02-20T00:20:36.469Z,100.00
2024-02-20T00:21:39.253Z,100.00
2024-02-20T00:22:40.962Z,100.00
2024-02-20T00:23:42.919Z,100.00
2024-02-20T00:24:44.984Z,100.00
2024-02-20T00:25:48.583Z,100.00
2024-02-20T00:26:50.224Z,100.00
2024-02-20T00:27:51.876Z,100.00
2024-02-20T00:28:54.010Z,100.00
2024-02-20T00:29:55.746Z,100.00
2024-02-20T00:30:57.771Z,100.00
2024-02-20T00:31:59.689Z,100.00
2024-02-20T00:33:01.311Z,100.00
2024-02-20T00:34:03.902Z,100.00
2024-02-20T00:35:07.116Z,100.00
2024-02-20T00:36:10.030Z,100.00
2024-02-20T00:37:11.706Z,100.00
2024-02-20T00:38:13.663Z,100.00
2024-02-20T00:39:15.250Z,100.00
2024-02-20T00:40:17.125Z,100.00
2024-02-20T00:41:19.780Z,100.00
2024-02-20T00:42:24.565Z,100.00
2024-02-20T00:43:30.502Z,100.00
2024-02-20T00:44:32.564Z,100.00
2024-02-20T00:45:34.555Z,100.00
2024-02-20T00:46:36.213Z,100.00
2024-02-20T00:47:40.419Z,100.00
2024-02-20T00:48:42.692Z,100.00
2024-02-20T00:49:44.740Z,100.00
2024-02-20T00:50:47.114Z,100.00
2024-02-20T00:51:49.763Z,100.00
2024-02-20T00:52:51.598Z,100.00
2024-02-20T00:53:53.848Z,100.00
2024-02-20T00:54:55.558Z,100.00
2024-02-20T00:55:57.330Z,100.00
2024-02-20T00:56:59.394Z,100.00
2024-02-20T00:58:01.206Z,100.00
2024-02-20T00:59:04.171Z,100.00
2024-02-20T01:00:06.733Z,100.00
2024-02-20T01:01:11.329Z,100.00
2024-02-20T01:02:14.097Z,100.00
2024-02-20T01:03:15.881Z,100.00
2024-02-20T01:04:17.964Z,100.00
2024-02-20T01:05:19.905Z,100.00
2024-02-20T01:06:21.605Z,100.00
2024-02-20T01:07:25.812Z,100.00
2024-02-20T01:08:27.789Z,100.00
2024-02-20T01:09:29.646Z,100.00
2024-02-20T01:10:31.306Z,100.00
2024-02-20T01:11:34.299Z,100.00
2024-02-20T01:12:36.064Z,100.00
2024-02-20T01:13:39.299Z,100.00
2024-02-20T01:14:46.311Z,100.00
2024-02-20T01:15:48.035Z,100.00
2024-02-20T01:16:49.994Z,100.00
2024-02-20T01:17:52.158Z,100.00
2024-02-20T01:18:54.554Z,100.00
2024-02-20T01:19:56.305Z,100.00
2024-02-20T01:20:58.003Z,100.00
2024-02-20T01:22:00.011Z,100.00
2024-02-20T01:23:02.002Z,100.00
2024-02-20T01:24:04.822Z,100.00
2024-02-20T01:25:06.644Z,100.00
2024-02-20T01:26:08.698Z,100.00
2024-02-20T01:27:10.383Z,100.00
2024-02-20T01:28:12.971Z,100.00
2024-02-20T01:29:14.803Z,100.00
2024-02-20T01:30:17.748Z,100.00
2024-02-20T01:31:19.750Z,100.00
2024-02-20T01:32:21.365Z,100.00
2024-02-20T01:33:23.032Z,100.00
2024-02-20T01:34:25.531Z,100.00
2024-02-20T01:35:28.212Z,100.00
2024-02-20T01:36:30.163Z,100.00
2024-02-20T01:37:31.780Z,100.00
2024-02-20T01:38:34.000Z,100.00
2024-02-20T01:39:35.635Z,100.00
2024-02-20T01:40:40.840Z,100.00
2024-02-20T01:41:46.174Z,100.00
2024-02-20T01:42:57.826Z,100.00
2024-02-20T01:43:59.692Z,100.00
2024-02-20T01:45:01.384Z,100.00
2024-02-20T01:46:04.613Z,100.00
2024-02-20T01:47:06.636Z,100.00
2024-02-20T01:48:09.881Z,100.00
2024-02-20T01:49:12.988Z,100.00
2024-02-20T01:50:15.418Z,100.00
2024-02-20T01:51:17.989Z,100.00
2024-02-20T01:52:20.000Z,100.00
2024-02-20T01:53:23.740Z,100.00
2024-02-20T01:54:25.666Z,100.00
2024-02-20T01:55:28.163Z,100.00
2024-02-20T01:56:30.581Z,100.00
2024-02-20T01:57:32.903Z,100.00
2024-02-20T01:58:35.035Z,100.00
2024-02-20T01:59:37.801Z,100.00
2024-02-20T02:00:39.616Z,100.00
2024-02-20T02:01:41.326Z,100.00
2024-02-20T02:02:43.336Z,100.00
2024-02-20T02:03:45.069Z,100.00
2024-02-20T02:04:47.226Z,100.00
2024-02-20T02:05:49.597Z,100.00
2024-02-20T02:06:51.797Z,100.00
2024-02-20T02:07:55.320Z,100.00
2024-02-20T02:08:57.190Z,100.00
2024-02-20T02:09:59.025Z,100.00
2024-02-20T02:11:00.793Z,100.00
2024-02-20T02:12:02.806Z,100.00
2024-02-20T02:13:04.880Z,100.00
2024-02-20T02:14:07.787Z,100.00
2024-02-20T02:15:09.719Z,100.00
2024-02-20T02:16:11.592Z,100.00
2024-02-20T02:17:14.264Z,100.00
2024-02-20T02:18:15.969Z,100.00
2024-02-20T02:19:17.889Z,100.00
2024-02-20T02:20:19.738Z,100.00
2024-02-20T02:21:21.381Z,100.00
2024-02-20T02:22:23.084Z,100.00
2024-02-20T02:23:24.813Z,100.00
2024-02-20T02:24:26.377Z,100.00
2024-02-20T02:25:28.441Z,100.00
2024-02-20T02:26:30.026Z,100.00
2024-02-20T02:27:31.919Z,100.00
2024-02-20T02:28:36.068Z,100.00
2024-02-20T02:29:38.575Z,100.00
2024-02-20T02:30:41.023Z,100.00
2024-02-20T02:31:42.777Z,100.00
2024-02-20T02:32:44.801Z,100.00
2024-02-20T02:33:48.570Z,100.00
2024-02-20T02:34:50.487Z,100.00
2024-02-20T02:35:52.085Z,100.00
2024-02-20T02:36:54.587Z,100.00
2024-02-20T02:37:56.357Z,100.00
2024-02-20T02:38:58.617Z,100.00
2024-02-20T02:40:00.601Z,100.00
2024-02-20T02:41:04.506Z,100.00
2024-02-20T02:42:06.497Z,100.00
2024-02-20T02:43:08.350Z,100.00
2024-02-20T02:44:10.596Z,100.00
2024-02-20T02:45:12.629Z,100.00
2024-02-20T02:46:14.906Z,100.00
2024-02-20T02:47:16.532Z,100.00
2024-02-20T02:48:18.388Z,100.00
2024-02-20T02:49:21.690Z,100.00
2024-02-20T02:50:24.030Z,100.00
2024-02-20T02:51:26.221Z,100.00
2024-02-20T02:52:27.853Z,100.00
2024-02-20T02:53:29.806Z,100.00
2024-02-20T02:54:31.578Z,100.00
2024-02-20T02:55:33.352Z,100.00
2024-02-20T02:56:35.266Z,100.00
2024-02-20T02:57:36.893Z,100.00
2024-02-20T02:58:39.132Z,100.00
2024-02-20T02:59:40.828Z,100.00
2024-02-20T03:00:42.544Z,100.00
2024-02-20T03:01:44.448Z,100.00
2024-02-20T03:02:47.939Z,100.00
2024-02-20T03:03:50.222Z,100.00
2024-02-20T03:04:52.065Z,100.00
2024-02-20T03:05:54.046Z,100.00
2024-02-20T03:06:55.728Z,100.00
2024-02-20T03:07:57.678Z,100.00
2024-02-20T03:08:59.971Z,100.00
2024-02-20T03:10:01.723Z,100.00
2024-02-20T03:11:07.087Z,100.00
2024-02-20T03:12:09.421Z,100.00
2024-02-20T03:13:11.005Z,100.00
2024-02-20T03:14:13.677Z,100.00
2024-02-20T03:15:15.423Z,100.00
2024-02-20T03:16:17.096Z,100.00
2024-02-20T03:17:19.805Z,100.00
2024-02-20T03:18:22.742Z,100.00
2024-02-20T03:19:24.548Z,100.00
2024-02-20T03:20:26.433Z,100.00
2024-02-20T03:21:28.849Z,100.00
2024-02-20T03:22:34.024Z,100.00
2024-02-20T03:23:36.645Z,100.00
2024-02-20T03:24:38.578Z,100.00
2024-02-20T03:25:40.986Z,100.00
2024-02-20T03:26:43.518Z,100.00
2024-02-20T03:27:45.185Z,100.00
2024-02-20T03:28:47.032Z,100.00
2024-02-20T03:29:48.982Z,100.00
2024-02-20T03:30:52.666Z,100.00
2024-02-20T03:31:55.163Z,100.00
2024-02-20T03:32:56.936Z,100.00
2024-02-20T03:33:58.971Z,100.00
2024-02-20T03:35:00.865Z,100.00
2024-02-20T03:36:03.855Z,100.00
2024-02-20T03:37:05.626Z,100.00
2024-02-20T03:38:07.542Z,100.00
2024-02-20T03:39:09.465Z,100.00
2024-02-20T03:40:11.538Z,100.00
2024-02-20T03:41:13.782Z,100.00
2024-02-20T03:42:18.707Z,100.00
2024-02-20T03:43:20.580Z,100.00
2024-02-20T03:44:22.294Z,100.00
2024-02-20T03:45:24.502Z,100.00
2024-02-20T03:46:26.154Z,100.00
2024-02-20T03:47:28.388Z,100.00
2024-02-20T03:48:30.938Z,100.00
2024-02-20T03:49:33.116Z,100.00
2024-02-20T03:50:35.865Z,100.00
2024-02-20T03:51:37.879Z,100.00
2024-02-20T03:52:39.673Z,100.00
2024-02-20T03:53:41.685Z,100.00
2024-02-20T03:54:43.553Z,100.00
2024-02-20T03:55:45.221Z,100.00
2024-02-20T03:56:46.940Z,100.00
2024-02-20T03:57:48.964Z,100.00
2024-02-20T03:58:51.196Z,100.00
2024-02-20T03:59:54.863Z,100.00
2024-02-20T04:00:56.626Z,100.00
2024-02-20T04:01:58.510Z,100.00
2024-02-20T04:03:00.845Z,100.00
2024-02-20T04:04:02.983Z,100.00
2024-02-20T04:05:05.644Z,100.00
2024-02-20T04:06:09.722Z,100.00
2024-02-20T04:07:11.892Z,100.00
2024-02-20T04:08:14.196Z,100.00
2024-02-20T04:09:15.872Z,100.00
2024-02-20T04:10:20.267Z,100.00
2024-02-20T04:11:22.016Z,100.00
2024-02-20T04:12:23.860Z,100.00
2024-02-20T04:13:26.781Z,100.00
2024-02-20T04:14:30.947Z,100.00
2024-02-20T04:15:32.762Z,100.00
2024-02-20T04:16:34.572Z,100.00
2024-02-20T04:17:36.408Z,100.00
2024-02-20T04:18:40.743Z,100.00
2024-02-20T04:19:42.728Z,100.00
2024-02-20T04:20:45.045Z,100.00
2024-02-20T04:21:47.207Z,100.00
2024-02-20T04:22:49.263Z,100.00
2024-02-20T04:23:51.103Z,100.00
2024-02-20T04:24:52.973Z,100.00
2024-02-20T04:25:54.742Z,100.00
2024-02-20T04:26:57.800Z,100.00
2024-02-20T04:27:59.706Z,100.00
2024-02-20T04:29:01.624Z,100.00
2024-02-20T04:30:03.676Z,100.00
2024-02-20T04:31:05.406Z,100.00
2024-02-20T04:32:07.282Z,100.00
2024-02-20T04:33:09.500Z,100.00
2024-02-20T04:34:11.334Z,99.80
2024-02-20T04:35:13.187Z,100.00
2024-02-20T04:36:16.486Z,100.00
2024-02-20T04:37:18.971Z,100.00
2024-02-20T04:38:20.633Z,100.00
2024-02-20T04:39:22.365Z,100.00
2024-02-20T04:40:25.967Z,100.00
2024-02-20T04:41:27.846Z,100.00
2024-02-20T04:42:29.601Z,100.00
2024-02-20T04:43:31.221Z,100.00
2024-02-20T04:44:33.027Z,100.00
2024-02-20T04:45:34.885Z,100.00
2024-02-20T04:46:36.597Z,100.00
2024-02-20T04:47:38.872Z,100.00
2024-02-20T04:48:40.517Z,100.00
2024-02-20T04:49:42.223Z,100.00
2024-02-20T04:50:44.396Z,100.00
2024-02-20T04:51:46.089Z,100.00
2024-02-20T04:52:47.974Z,100.00
2024-02-20T04:53:49.823Z,100.00
2024-02-20T04:54:53.839Z,100.00
2024-02-20T04:55:55.518Z,100.00
2024-02-20T04:56:57.136Z,100.00
2024-02-20T04:57:59.040Z,100.00
2024-02-20T04:59:00.794Z,100.00
2024-02-20T05:00:02.579Z,100.00
2024-02-20T05:01:04.655Z,100.00
2024-02-20T05:02:08.396Z,100.00
2024-02-20T05:03:11.472Z,100.00
2024-02-20T05:04:14.246Z,100.00
2024-02-20T05:05:16.254Z,100.00
2024-02-20T05:06:20.181Z,100.00
2024-02-20T05:07:22.009Z,100.00
2024-02-20T05:08:24.393Z,100.00
2024-02-20T05:09:26.239Z,100.00
2024-02-20T05:10:29.657Z,100.00
2024-02-20T05:11:31.816Z,100.00
2024-02-20T05:12:35.158Z,100.00
2024-02-20T05:17:00.083Z,100.00
2024-02-20T05:18:01.789Z,100.00
2024-02-20T05:19:03.869Z,100.00
2024-02-20T05:20:07.039Z,100.00
2024-02-20T05:21:09.596Z,100.00
2024-02-20T05:22:11.232Z,100.00
2024-02-20T05:23:13.024Z,100.00
2024-02-20T05:24:14.766Z,100.00
2024-02-20T05:25:16.577Z,100.00
2024-02-20T05:26:18.464Z,100.00
2024-02-20T05:27:20.764Z,100.00
2024-02-20T05:28:22.504Z,100.00
2024-02-20T05:29:24.461Z,100.00
2024-02-20T05:30:26.032Z,100.00
2024-02-20T05:31:32.748Z,100.00
2024-02-20T05:32:35.182Z,100.00
2024-02-20T05:33:36.878Z,100.00
2024-02-20T05:34:39.317Z,100.00
2024-02-20T05:35:42.657Z,100.00
2024-02-20T05:36:44.497Z,100.00
2024-02-20T05:37:46.297Z,100.00
2024-02-20T05:38:48.030Z,100.00
2024-02-20T05:39:49.919Z,100.00
2024-02-20T05:40:52.041Z,100.00
2024-02-20T05:41:53.920Z,100.00
2024-02-20T05:42:55.514Z,100.00
2024-02-20T05:44:01.617Z,100.00
2024-02-20T05:45:03.708Z,100.00
2024-02-20T05:46:05.548Z,100.00
2024-02-20T05:47:07.315Z,100.00
2024-02-20T05:48:09.952Z,100.00
2024-02-20T05:49:12.827Z,100.00
2024-02-20T05:50:14.900Z,100.00
2024-02-20T05:51:18.044Z,100.00
2024-02-20T05:52:19.863Z,100.00
2024-02-20T05:53:21.512Z,100.00
2024-02-20T05:54:25.375Z,100.00
2024-02-20T05:55:27.006Z,100.00
2024-02-20T05:56:31.139Z,100.00
2024-02-20T05:57:33.015Z,100.00
2024-02-20T05:58:34.968Z,100.00
2024-02-20T05:59:36.745Z,100.00
2024-02-20T06:00:39.452Z,100.00
2024-02-20T06:01:41.269Z,100.00
2024-02-20T06:02:43.199Z,100.00
2024-02-20T06:03:46.183Z,100.00
2024-02-20T06:04:48.166Z,100.00
2024-02-20T06:05:50.024Z,100.00
2024-02-20T06:06:52.041Z,100.00
2024-02-20T06:07:54.084Z,100.00
2024-02-20T06:08:55.752Z,100.00
2024-02-20T06:09:58.278Z,100.00
2024-02-20T06:11:00.229Z,100.00
2024-02-20T06:12:01.874Z,100.00
2024-02-20T06:13:03.822Z,100.00
2024-02-20T06:14:05.532Z,100.00
2024-02-20T06:15:10.600Z,100.00
2024-02-20T06:16:12.757Z,100.00
2024-02-20T06:17:14.585Z,100.00
2024-02-20T06:18:16.255Z,100.00
2024-02-20T06:19:18.079Z,100.00
2024-02-20T06:20:19.964Z,100.00
2024-02-20T06:21:23.172Z,100.00
2024-02-20T06:22:24.927Z,100.00
2024-02-20T06:23:26.567Z,100.00
2024-02-20T06:24:28.221Z,100.00
2024-02-20T06:25:30.222Z,100.00
2024-02-20T06:26:32.490Z,100.00
2024-02-20T06:27:34.224Z,100.00
2024-02-20T06:28:35.923Z,100.00
2024-02-20T06:29:38.214Z,100.00
2024-02-20T06:30:39.868Z,100.00
2024-02-20T06:31:41.786Z,100.00
2024-02-20T06:32:43.861Z,100.00
2024-02-20T06:33:46.372Z,100.00
2024-02-20T06:34:48.957Z,100.00
2024-02-20T06:35:50.920Z,100.00
2024-02-20T06:36:53.178Z,100.00
2024-02-20T06:37:54.891Z,100.00
2024-02-20T06:38:56.524Z,100.00
2024-02-20T06:39:58.593Z,100.00
2024-02-20T06:41:03.566Z,100.00
2024-02-20T06:42:05.463Z,100.00
2024-02-20T06:43:07.120Z,100.00
2024-02-20T06:44:08.946Z,100.00
2024-02-20T06:45:12.847Z,100.00
2024-02-20T06:46:15.137Z,100.00
2024-02-20T06:47:16.759Z,100.00
2024-02-20T06:48:18.587Z,100.00
2024-02-20T06:49:20.365Z,100.00
2024-02-20T06:50:22.072Z,100.00
2024-02-20T06:51:25.657Z,100.00
2024-02-20T06:52:28.112Z,100.00
2024-02-20T06:53:29.926Z,100.00
2024-02-20T06:54:31.581Z,100.00
2024-02-20T06:55:34.295Z,100.00
2024-02-20T06:56:35.968Z,100.00
2024-02-20T06:57:40.711Z,100.00
2024-02-20T06:58:42.378Z,100.00
2024-02-20T06:59:44.291Z,100.00
2024-02-20T07:00:46.104Z,100.00
2024-02-20T07:01:50.112Z,100.00
2024-02-20T07:02:52.136Z,100.00
2024-02-20T07:03:54.753Z,100.00
2024-02-20T07:04:56.634Z,100.00
2024-02-20T07:05:58.604Z,100.00
2024-02-20T07:07:00.703Z,100.00
2024-02-20T07:08:03.100Z,100.00
2024-02-20T07:09:04.862Z,100.00
2024-02-20T07:10:08.530Z,100.00
2024-02-20T07:11:11.813Z,100.00
2024-02-20T07:12:13.822Z,100.00
2024-02-20T07:13:15.770Z,100.00
2024-02-20T07:14:17.710Z,100.00
2024-02-20T07:15:19.516Z,100.00
2024-02-20T07:16:21.098Z,100.00
2024-02-20T07:17:24.807Z,100.00
2024-02-20T07:18:27.473Z,100.00
2024-02-20T07:19:29.267Z,100.00
2024-02-20T07:20:31.050Z,100.00
2024-02-20T07:21:32.820Z,100.00
2024-02-20T07:22:35.539Z,100.00
2024-02-20T07:23:37.294Z,100.00
2024-02-20T07:24:39.082Z,100.00
2024-02-20T07:25:40.806Z,100.00
2024-02-20T07:26:43.186Z,100.00
2024-02-20T07:27:44.887Z,100.00
2024-02-20T07:28:46.537Z,100.00
2024-02-20T07:29:50.663Z,100.00
2024-02-20T07:30:52.336Z,100.00
2024-02-20T07:31:56.062Z,100.00
2024-02-20T07:32:58.849Z,100.00
2024-02-20T07:34:08.993Z,100.00
2024-02-20T07:35:12.903Z,100.00
2024-02-20T07:36:15.444Z,100.00
2024-02-20T07:37:17.843Z,100.00
2024-02-20T07:38:19.953Z,100.00
2024-02-20T07:39:21.517Z,100.00
2024-02-20T07:40:25.366Z,100.00
2024-02-20T07:41:27.094Z,100.00
2024-02-20T07:42:31.533Z,100.00
2024-02-20T07:43:35.780Z,100.00
2024-02-20T07:44:39.675Z,100.00
2024-02-20T07:45:41.354Z,100.00
2024-02-20T07:46:43.023Z,100.00
2024-02-20T07:47:45.489Z,100.00
2024-02-20T07:48:50.371Z,100.00
2024-02-20T07:49:52.217Z,100.00
2024-02-20T07:50:54.298Z,100.00
2024-02-20T07:51:57.223Z,100.00
2024-02-20T07:52:58.929Z,100.00
2024-02-20T07:54:01.182Z,100.00
2024-02-20T07:55:06.390Z,100.00
2024-02-20T07:56:09.670Z,100.00
2024-02-20T07:57:12.047Z,100.00
2024-02-20T07:58:17.820Z,100.00
2024-02-20T07:59:21.517Z,100.00
2024-02-20T08:00:25.063Z,100.00
2024-02-20T08:01:27.055Z,100.00
2024-02-20T08:02:29.080Z,100.00
2024-02-20T08:03:30.773Z,100.00
2024-02-20T08:04:32.461Z,100.00
2024-02-20T08:05:34.597Z,100.00
2024-02-20T08:06:36.363Z,100.00
2024-02-20T08:07:40.942Z,100.00
2024-02-20T08:08:43.172Z,100.00
2024-02-20T08:09:44.850Z,100.00
2024-02-20T08:10:46.625Z,100.00
2024-02-20T08:11:48.853Z,100.00
2024-02-20T08:12:50.641Z,100.00
2024-02-20T08:13:52.434Z,100.00
2024-02-20T08:14:54.071Z,100.00
2024-02-20T08:15:57.747Z,100.00
2024-02-20T08:17:00.292Z,100.00
2024-02-20T08:18:01.959Z,100.00
2024-02-20T08:19:06.565Z,100.00
2024-02-20T08:20:11.444Z,100.00
2024-02-20T08:21:14.246Z,100.00
2024-02-20T08:22:17.060Z,100.00
2024-02-20T08:23:19.044Z,100.00
2024-02-20T08:24:20.704Z,100.00
2024-02-20T08:25:22.506Z,100.00
2024-02-20T08:26:24.407Z,100.00
2024-02-20T08:27:26.029Z,100.00
2024-02-20T08:28:28.003Z,100.00
2024-02-20T08:29:29.836Z,100.00
2024-02-20T08:30:31.455Z,100.00
2024-02-20T08:31:33.236Z,100.00
2024-02-20T08:32:34.959Z,100.00
2024-02-20T08:33:37.229Z,100.00
2024-02-20T08:34:39.236Z,100.00
2024-02-20T08:35:41.069Z,100.00
2024-02-20T08:36:42.952Z,100.00
2024-02-20T08:37:45.113Z,100.00
2024-02-20T08:38:47.868Z,100.00
2024-02-20T08:39:52.503Z,100.00
2024-02-20T08:40:54.627Z,100.00
2024-02-20T08:41:56.283Z,100.00
2024-02-20T08:42:58.038Z,100.00
2024-02-20T08:43:59.913Z,100.00
2024-02-20T08:45:04.563Z,100.00
2024-02-20T08:46:06.592Z,100.00
2024-02-20T08:47:08.475Z,100.00
2024-02-20T08:48:10.225Z,100.00
2024-02-20T08:49:12.905Z,100.00
2024-02-20T08:50:18.319Z,100.00
2024-02-20T08:51:20.297Z,100.00
2024-02-20T08:52:22.112Z,100.00
2024-02-20T08:53:23.881Z,100.00
2024-02-20T08:54:25.914Z,100.00
2024-02-20T08:55:27.894Z,100.00
2024-02-20T08:56:29.643Z,100.00
2024-02-20T08:57:31.268Z,100.00
2024-02-20T08:58:33.025Z,100.00
2024-02-20T08:59:35.135Z,100.00
2024-02-20T09:00:37.184Z,100.00
2024-02-20T09:01:39.179Z,100.00
2024-02-20T09:02:41.813Z,100.00
2024-02-20T09:03:43.620Z,100.00
2024-02-20T09:04:45.457Z,100.00
2024-02-20T09:05:47.578Z,100.00
2024-02-20T09:06:49.421Z,100.00
2024-02-20T09:07:51.672Z,100.00
2024-02-20T09:08:54.075Z,100.00
2024-02-20T09:09:55.716Z,100.00
2024-02-20T09:11:01.745Z,100.00
2024-02-20T09:12:04.269Z,100.00
2024-02-20T09:13:07.323Z,100.00
2024-02-20T09:14:09.587Z,100.00
2024-02-20T09:15:11.512Z,100.00
2024-02-20T09:16:13.672Z,100.00
2024-02-20T09:17:16.726Z,100.00
2024-02-20T09:18:18.680Z,100.00
2024-02-20T09:19:20.867Z,100.00
2024-02-20T09:20:22.824Z,100.00
2024-02-20T09:21:24.985Z,99.76
2024-02-20T09:22:27.701Z,99.89
2024-02-20T09:23:29.494Z,99.48
2024-02-20T09:24:31.148Z,99.21
2024-02-20T09:25:32.935Z,98.96
2024-02-20T09:26:34.744Z,98.70
2024-02-20T09:27:38.695Z,98.41
2024-02-20T09:28:40.415Z,98.51
2024-02-20T09:29:42.296Z,98.28
2024-02-20T09:30:44.318Z,98.47
2024-02-20T09:31:45.968Z,98.31
2024-02-20T09:32:47.933Z,98.20
2024-02-20T09:33:50.071Z,97.70
2024-02-20T09:34:52.884Z,97.52
2024-02-20T09:35:54.670Z,96.97
2024-02-20T09:36:56.387Z,95.91
2024-02-20T09:38:00.278Z,96.07
2024-02-20T09:39:04.790Z,95.93
2024-02-20T09:40:06.979Z,96.32
2024-02-20T09:41:11.851Z,96.62
2024-02-20T09:42:22.831Z,96.08
2024-02-20T09:43:26.672Z,96.24
2024-02-20T09:44:31.605Z,95.32
2024-02-20T09:45:37.826Z,96.00
2024-02-20T09:46:45.652Z,96.58
2024-02-20T09:47:55.481Z,96.38
2024-02-20T09:48:58.874Z,96.13
2024-02-20T09:50:02.913Z,96.18
2024-02-20T09:51:05.844Z,96.15
2024-02-20T09:52:09.325Z,96.30
2024-02-20T09:53:14.353Z,96.31
2024-02-20T09:54:18.158Z,96.35
2024-02-20T09:55:20.098Z,95.63
2024-02-20T09:56:23.762Z,95.93
2024-02-20T09:57:25.491Z,95.46
2024-02-20T09:58:29.928Z,95.52
2024-02-20T09:59:33.822Z,95.03
2024-02-20T10:00:38.610Z,95.12
2024-02-20T10:01:40.436Z,95.48
2024-02-20T10:02:45.496Z,95.63
2024-02-20T10:03:48.752Z,95.71
2024-02-20T10:04:50.997Z,94.84
2024-02-20T10:05:53.931Z,95.02
2024-02-20T10:06:55.776Z,94.85
2024-02-20T10:08:01.981Z,94.96
2024-02-20T10:09:04.897Z,95.22
2024-02-20T10:10:10.106Z,95.21
2024-02-20T10:11:11.980Z,94.90
2024-02-20T10:12:24.750Z,94.75
2024-02-20T10:13:26.570Z,94.73
2024-02-20T10:14:29.187Z,94.45
2024-02-20T10:15:31.337Z,94.10
2024-02-20T10:16:33.000Z,93.76
2024-02-20T10:17:35.274Z,93.38
2024-02-20T10:18:36.937Z,93.51
2024-02-20T10:19:38.776Z,93.14
2024-02-20T10:20:40.503Z,93.61
2024-02-20T10:21:51.496Z,93.71
2024-02-20T10:23:09.799Z,93.64
2024-02-20T10:24:17.722Z,93.94
2024-02-20T10:25:23.418Z,93.36
2024-02-20T10:26:25.226Z,92.42
2024-02-20T10:27:26.954Z,92.61
2024-02-20T10:28:29.169Z,92.88
2024-02-20T10:29:34.925Z,93.17
2024-02-20T10:30:38.927Z,92.83
2024-02-20T10:31:41.104Z,92.89
2024-02-20T10:32:42.928Z,92.17
2024-02-20T10:34:00.373Z,92.80
2024-02-20T10:35:11.275Z,92.83
2024-02-20T10:36:13.987Z,92.55
2024-02-20T10:37:17.811Z,92.62
2024-02-20T10:38:20.163Z,92.33
2024-02-20T10:39:23.696Z,92.29
2024-02-20T10:40:28.049Z,92.88
2024-02-20T10:41:30.389Z,92.77
2024-02-20T10:42:36.570Z,92.78
2024-02-20T10:43:39.921Z,92.81
2024-02-20T10:44:43.771Z,92.79
2024-02-20T10:45:51.663Z,92.56
2024-02-20T10:46:58.039Z,93.03
2024-02-20T10:48:04.700Z,93.34
2024-02-20T10:49:33.250Z,92.99
2024-02-20T10:50:36.259Z,93.64
2024-02-20T10:51:42.496Z,93.72
2024-02-20T10:52:45.497Z,93.35
2024-02-20T10:53:48.822Z,93.46
2024-02-20T10:55:09.082Z,93.84
2024-02-20T10:56:17.975Z,93.67
2024-02-20T10:57:22.582Z,93.48
2024-02-20T10:58:25.493Z,93.97
2024-02-20T10:59:28.762Z,93.36
2024-02-20T11:00:32.475Z,93.73
2024-02-20T11:01:34.925Z,93.41
2024-02-20T11:02:38.741Z,93.20
2024-02-20T11:03:49.539Z,93.46
2024-02-20T11:05:00.940Z,93.42
2024-02-20T11:06:02.861Z,93.39
2024-02-20T11:07:09.743Z,93.82
2024-02-20T11:08:13.078Z,93.75
2024-02-20T11:09:15.793Z,93.94
2024-02-20T11:10:25.441Z,94.01
2024-02-20T11:11:27.321Z,94.01
2024-02-20T11:12:35.216Z,93.97
2024-02-20T11:13:37.495Z,94.04
2024-02-20T11:14:39.214Z,93.73
2024-02-20T11:15:41.033Z,93.75
2024-02-20T11:16:50.715Z,93.63
2024-02-20T11:17:56.697Z,93.67
2024-02-20T11:18:58.750Z,93.35
2024-02-20T11:20:15.156Z,93.41
2024-02-20T11:21:29.267Z,93.14
2024-02-20T11:22:30.894Z,92.81
2024-02-20T11:23:36.230Z,93.36
2024-02-20T11:24:41.270Z,93.20
2024-02-20T11:25:43.376Z,93.25
2024-02-20T11:26:48.972Z,93.75
2024-02-20T11:27:50.828Z,93.46
2024-02-20T11:28:52.565Z,93.19
2024-02-20T11:29:54.812Z,93.34
2024-02-20T11:31:04.940Z,93.39
2024-02-20T11:32:11.329Z,93.34
2024-02-20T11:33:18.760Z,93.33
2024-02-20T11:34:22.946Z,93.23
2024-02-20T11:35:34.488Z,93.34
2024-02-20T11:36:39.592Z,93.47
2024-02-20T11:37:55.144Z,93.45
2024-02-20T11:39:07.701Z,93.34
2024-02-20T11:40:12.045Z,93.46
2024-02-20T11:41:14.751Z,93.57
2024-02-20T11:42:16.416Z,93.43
2024-02-20T11:43:23.484Z,93.21
2024-02-20T11:44:25.797Z,93.30
2024-02-20T11:45:30.569Z,92.58
2024-02-20T11:46:34.274Z,93.10
2024-02-20T11:47:36.022Z,93.20
2024-02-20T11:48:38.876Z,92.99
2024-02-20T11:49:40.700Z,93.32
2024-02-20T11:50:44.943Z,93.04
2024-02-20T11:51:46.732Z,92.62
2024-02-20T11:52:58.004Z,92.68
2024-02-20T11:54:08.375Z,92.35
2024-02-20T11:55:13.327Z,92.52
2024-02-20T11:56:15.363Z,92.17
2024-02-20T11:57:17.504Z,92.12
2024-02-20T11:58:28.872Z,92.24
2024-02-20T11:59:31.965Z,92.19
2024-02-20T12:00:40.031Z,92.25
2024-02-20T12:01:41.811Z,92.40
2024-02-20T12:02:46.065Z,92.68
2024-02-20T12:03:47.929Z,92.50
2024-02-20T12:04:57.886Z,92.68
2024-02-20T12:06:08.223Z,92.76
2024-02-20T12:07:11.131Z,92.94
2024-02-20T12:08:18.698Z,93.16
2024-02-20T12:09:20.527Z,93.30
2024-02-20T12:10:24.911Z,92.81
2024-02-20T12:11:31.426Z,92.95
2024-02-20T12:12:35.979Z,92.72
2024-02-20T12:13:38.016Z,92.69
2024-02-20T12:14:39.941Z,92.23
2024-02-20T12:15:43.125Z,92.65
2024-02-20T12:16:45.471Z,92.77
2024-02-20T12:17:50.823Z,92.76
2024-02-20T12:18:57.534Z,93.07
2024-02-20T12:20:12.822Z,93.19
2024-02-20T12:21:15.204Z,93.29
2024-02-20T12:22:19.273Z,93.28
2024-02-20T12:23:20.940Z,93.23
2024-02-20T12:24:26.525Z,93.17
2024-02-20T12:25:30.530Z,93.03
2024-02-20T12:26:32.451Z,92.98
2024-02-20T12:27:34.781Z,92.97
2024-02-20T12:28:39.990Z,93.17
2024-02-20T12:29:42.444Z,92.89
2024-02-20T12:30:49.785Z,92.62
2024-02-20T12:31:51.666Z,92.79
2024-02-20T12:32:56.297Z,92.40
2024-02-20T12:34:00.672Z,92.33
2024-02-20T12:35:03.401Z,92.19
2024-02-20T12:36:05.792Z,91.79
2024-02-20T12:37:09.566Z,91.80
2024-02-20T12:38:12.716Z,91.80
2024-02-20T12:39:15.528Z,91.77
2024-02-20T12:40:21.156Z,91.76
2024-02-20T12:41:23.136Z,91.39
2024-02-20T12:42:24.801Z,91.18
2024-02-20T12:43:28.256Z,90.94
2024-02-20T12:44:29.924Z,91.02
2024-02-20T12:45:31.656Z,90.86
2024-02-20T12:46:36.004Z,90.66
2024-02-20T12:47:40.542Z,90.59
2024-02-20T12:48:42.990Z,90.00
2024-02-20T12:49:45.122Z,90.33
2024-02-20T12:50:47.024Z,89.86
2024-02-20T12:51:49.826Z,89.82
2024-02-20T12:52:52.727Z,89.90
2024-02-20T12:53:54.472Z,89.75
2024-02-20T12:54:56.675Z,89.62
2024-02-20T12:56:01.207Z,89.84
2024-02-20T12:57:05.683Z,89.60
2024-02-20T12:58:11.439Z,89.70
2024-02-20T12:59:16.069Z,89.70
2024-02-20T13:00:20.168Z,90.09
2024-02-20T13:01:21.997Z,89.84
2024-02-20T13:02:26.374Z,89.78
2024-02-20T13:03:30.109Z,90.08
2024-02-20T13:04:35.291Z,90.31
2024-02-20T13:05:41.448Z,90.50
2024-02-20T13:06:43.696Z,90.57
2024-02-20T13:07:45.424Z,90.56
2024-02-20T13:08:47.169Z,90.66
2024-02-20T13:09:54.822Z,90.85
2024-02-20T13:10:57.723Z,90.88
2024-02-20T13:12:05.283Z,90.89
2024-02-20T13:13:07.726Z,90.53
2024-02-20T13:14:09.641Z,90.57
2024-02-20T13:15:11.343Z,90.83
2024-02-20T13:16:13.003Z,91.09
2024-02-20T13:17:15.813Z,90.80